createdAt,value
2022-09-21T00:02:03.091Z,96375.53
2022-09-21T00:07:05.530Z,96339.47
2022-09-21T00:12:07.759Z,96337.28
2022-09-21T00:17:10.007Z,96368.94
2022-09-21T00:22:12.088Z,96358.44
2022-09-21T00:27:14.136Z,96362.66
2022-09-21T00:32:17.256Z,96358.44
2022-09-21T00:37:20.626Z,96360.94
2022-09-21T00:42:29.438Z,96361.38
2022-09-21T00:47:37.371Z,96342.91
2022-09-21T00:52:45.258Z,96321.13
2022-09-21T00:57:52.045Z,96325.75
2022-09-21T01:03:01.503Z,96361.28
2022-09-21T01:08:08.201Z,96355.25
2022-09-21T01:13:39.208Z,96343.69
2022-09-21T01:18:52.004Z,96349.56
2022-09-21T01:24:12.533Z,96327.53
2022-09-21T01:29:35.325Z,96317.91
2022-09-21T01:35:11.139Z,96333.16
2022-09-21T01:40:32.014Z,96319.28
2022-09-21T01:45:41.309Z,96320.88
2022-09-21T01:50:52.012Z,96308.28
2022-09-21T01:55:58.420Z,96328.81
2022-09-21T02:01:01.415Z,96332.72
2022-09-21T02:06:06.252Z,96285.16
2022-09-21T02:11:12.950Z,96333.41
2022-09-21T02:17:02.984Z,96343.94
2022-09-21T02:22:16.092Z,96326.84
2022-09-21T02:27:25.313Z,96335.28
2022-09-21T02:32:53.292Z,96329.00
2022-09-21T02:38:09.550Z,96347.53
2022-09-21T02:43:27.839Z,96308.00
2022-09-21T02:48:38.406Z,96311.34
2022-09-21T02:53:42.553Z,96282.94
2022-09-21T02:58:50.061Z,96321.84
2022-09-21T03:03:52.598Z,96305.53
2022-09-21T03:08:54.835Z,96306.44
2022-09-21T03:13:57.312Z,96290.75
2022-09-21T03:18:59.369Z,96326.09
2022-09-21T03:24:01.882Z,96297.44
2022-09-21T03:29:04.468Z,96330.13
2022-09-21T03:34:06.526Z,96313.72
2022-09-21T03:39:08.706Z,96297.50
2022-09-21T03:44:11.005Z,96292.53
2022-09-21T03:49:13.388Z,96329.56
2022-09-21T03:54:15.466Z,96331.72
2022-09-21T03:59:17.841Z,96334.31
2022-09-21T04:04:20.564Z,96327.47
2022-09-21T04:09:22.696Z,96326.97
2022-09-21T04:14:25.126Z,96339.22
2022-09-21T04:19:27.174Z,96354.50
2022-09-21T04:24:31.182Z,96332.91
2022-09-21T04:29:33.543Z,96340.25
2022-09-21T04:34:36.543Z,96317.16
2022-09-21T04:39:39.185Z,96336.34
2022-09-21T04:44:41.626Z,96346.56
2022-09-21T04:49:43.775Z,96324.16
2022-09-21T04:54:46.693Z,96354.09
2022-09-21T04:59:48.726Z,96356.78
2022-09-21T05:04:51.212Z,96364.25
2022-09-21T05:10:05.433Z,96325.16
2022-09-21T05:15:08.548Z,96354.72
2022-09-21T05:20:11.959Z,96354.06
2022-09-21T05:25:14.447Z,96316.56
2022-09-21T05:30:16.994Z,96337.53
2022-09-21T05:35:32.230Z,96343.97
2022-09-21T05:40:35.197Z,96337.59
2022-09-21T05:46:03.710Z,96346.25
2022-09-21T05:51:12.931Z,96313.72
2022-09-21T05:56:44.239Z,96342.19
2022-09-21T06:01:59.023Z,96320.56
2022-09-21T06:07:01.349Z,96314.06
2022-09-21T06:12:04.719Z,96318.97
2022-09-21T06:17:06.831Z,96310.13
2022-09-21T06:22:08.874Z,96329.09
2022-09-21T06:27:11.290Z,96309.06
2022-09-21T06:32:13.507Z,96308.03
2022-09-21T06:37:15.605Z,96329.88
2022-09-21T06:42:17.689Z,96319.50
2022-09-21T06:47:20.065Z,96331.41
2022-09-21T06:52:22.294Z,96320.44
2022-09-21T06:57:24.399Z,96316.34
2022-09-21T07:02:26.494Z,96320.91
2022-09-21T07:07:32.499Z,96326.41
2022-09-21T07:12:35.560Z,96329.06
2022-09-21T07:17:39.936Z,96309.09
2022-09-21T07:22:42.205Z,96329.03
2022-09-21T07:27:44.214Z,96320.59
2022-09-21T07:32:50.441Z,96332.38
2022-09-21T07:37:52.562Z,96333.84
2022-09-21T07:42:58.718Z,96333.50
2022-09-21T07:48:08.957Z,96337.13
2022-09-21T07:53:11.210Z,96340.13
2022-09-21T07:58:31.803Z,96310.34
2022-09-21T08:03:34.137Z,96334.28
2022-09-21T08:08:36.765Z,96319.38
2022-09-21T08:13:39.202Z,96299.53
2022-09-21T08:18:41.907Z,96336.09
2022-09-21T08:23:44.287Z,96309.97
2022-09-21T08:28:53.109Z,96301.19
2022-09-21T08:33:57.261Z,96326.41
2022-09-21T08:38:59.589Z,96313.97
2022-09-21T08:44:14.297Z,96325.69
2022-09-21T08:49:27.954Z,96317.50
2022-09-21T08:55:05.870Z,96320.28
2022-09-21T09:00:14.896Z,96322.97
2022-09-21T09:05:39.401Z,96322.47
2022-09-21T09:11:05.553Z,96315.59
2022-09-21T09:16:36.546Z,96305.19
2022-09-21T09:21:41.941Z,96306.00
2022-09-21T09:26:55.711Z,96298.94
2022-09-21T09:32:00.950Z,96300.75
2022-09-21T09:37:14.323Z,96267.34
2022-09-21T09:42:35.273Z,96282.53
2022-09-21T09:48:02.947Z,96291.16
2022-09-21T09:53:16.690Z,96283.84
2022-09-21T09:58:22.082Z,96293.75
2022-09-21T10:03:27.237Z,96266.72
2022-09-21T10:08:39.525Z,96262.19
2022-09-21T10:13:50.598Z,96243.63
2022-09-21T10:18:52.641Z,96253.19
2022-09-21T10:23:59.642Z,96248.06
2022-09-21T10:29:17.700Z,96212.13
2022-09-21T10:34:20.138Z,96232.16
2022-09-21T10:39:26.649Z,96241.41
2022-09-21T10:44:37.957Z,96235.53
2022-09-21T10:49:47.132Z,96203.66
2022-09-21T10:54:52.495Z,96222.19
2022-09-21T10:59:54.831Z,96210.41
2022-09-21T11:05:26.925Z,96231.53
2022-09-21T11:10:35.160Z,96248.69
2022-09-21T11:15:49.666Z,96243.97
2022-09-21T11:20:57.386Z,96209.84
2022-09-21T11:26:10.949Z,96228.63
2022-09-21T11:31:54.323Z,96193.63
2022-09-21T11:37:19.015Z,96217.81
2022-09-21T11:42:33.736Z,96209.63
2022-09-21T11:48:06.268Z,96164.06
2022-09-21T11:53:40.653Z,96200.31
2022-09-21T11:59:17.715Z,96172.94
2022-09-21T12:04:56.254Z,96191.84
2022-09-21T12:10:13.936Z,96159.16
2022-09-21T12:15:49.860Z,96191.78
2022-09-21T12:21:04.814Z,96175.72
2022-09-21T12:26:07.845Z,96176.03
2022-09-21T12:31:19.032Z,96161.66
2022-09-21T12:36:47.825Z,96174.56
2022-09-21T12:42:05.630Z,96198.34
2022-09-21T12:47:13.597Z,96205.84
2022-09-21T12:52:23.766Z,96203.81
2022-09-21T12:58:14.538Z,96191.38
2022-09-21T13:03:44.070Z,96206.88
2022-09-21T13:08:47.763Z,96251.69
2022-09-21T13:14:03.832Z,96248.91
2022-09-21T13:19:23.480Z,96246.06
2022-09-21T13:24:31.108Z,96260.94
2022-09-21T13:29:36.310Z,96262.63
2022-09-21T13:34:42.932Z,96219.53
2022-09-21T13:39:51.004Z,96261.97
2022-09-21T13:44:53.595Z,96238.72
2022-09-21T13:50:00.505Z,96265.25
2022-09-21T13:55:06.652Z,96211.09
2022-09-21T14:00:12.794Z,96250.91
2022-09-21T14:05:33.437Z,96231.56
2022-09-21T14:10:38.600Z,96204.41
2022-09-21T14:15:40.917Z,96213.53
2022-09-21T14:21:09.338Z,96219.16
2022-09-21T14:26:34.256Z,96194.59
2022-09-21T14:31:39.560Z,96194.31
2022-09-21T14:36:50.347Z,96201.63
2022-09-21T14:41:56.598Z,96211.50
2022-09-21T14:47:28.804Z,96202.47
2022-09-21T14:52:43.568Z,96202.06
2022-09-21T14:58:04.433Z,96204.53
2022-09-21T15:03:54.421Z,96202.59
2022-09-21T15:09:24.293Z,96213.56
2022-09-21T15:14:32.474Z,96216.44
2022-09-21T15:19:37.772Z,96194.81
2022-09-21T15:24:52.848Z,96204.91
2022-09-21T15:29:56.801Z,96218.28
2022-09-21T15:35:04.161Z,96216.97
2022-09-21T15:40:19.347Z,96220.78
2022-09-21T15:45:21.959Z,96231.50
2022-09-21T15:50:25.555Z,96246.63
2022-09-21T15:55:31.184Z,96271.75
2022-09-21T16:00:35.522Z,96260.00
2022-09-21T16:05:47.318Z,96240.34
2022-09-21T16:10:50.313Z,96290.00
2022-09-21T16:16:04.355Z,96250.28
2022-09-21T16:21:14.485Z,96280.31
2022-09-21T16:26:23.892Z,96274.75
2022-09-21T16:31:31.136Z,96276.00
2022-09-21T16:36:55.401Z,96253.28
2022-09-21T16:42:01.773Z,96271.72
2022-09-21T16:47:04.586Z,96281.00
2022-09-21T16:52:07.786Z,96301.41
2022-09-21T16:57:12.681Z,96299.50
2022-09-21T17:02:16.053Z,96303.22
2022-09-21T17:07:20.655Z,96282.63
2022-09-21T17:12:24.182Z,96304.50
2022-09-21T17:17:26.912Z,96304.91
2022-09-21T17:22:29.265Z,96340.53
2022-09-21T17:27:32.335Z,96346.44
2022-09-21T17:32:38.531Z,96344.56
2022-09-21T17:37:43.458Z,96362.56
2022-09-21T17:42:48.611Z,96372.31
2022-09-21T17:47:51.259Z,96379.97
2022-09-21T17:53:13.987Z,96392.31
2022-09-21T17:58:44.988Z,96400.16
2022-09-21T18:03:47.955Z,96389.75
2022-09-21T18:08:51.039Z,96394.31
2022-09-21T18:14:22.234Z,96415.72
2022-09-21T18:19:49.641Z,96413.00
2022-09-21T18:24:54.561Z,96410.66
2022-09-21T18:29:57.214Z,96379.66
2022-09-21T18:35:28.738Z,96424.63
2022-09-21T18:40:37.168Z,96429.94
2022-09-21T18:45:50.475Z,96407.59
2022-09-21T18:51:11.228Z,96410.56
2022-09-21T18:56:14.484Z,96392.00
2022-09-21T19:01:19.353Z,96387.41
2022-09-21T19:06:46.691Z,96407.16
2022-09-21T19:12:07.707Z,96416.03
2022-09-21T19:17:39.077Z,96394.19
2022-09-21T19:22:49.664Z,96408.06
2022-09-21T19:28:00.839Z,96383.81
2022-09-21T19:33:45.660Z,96403.56
2022-09-21T19:38:42.017Z,96372.69
2022-09-21T19:43:59.292Z,96388.38
2022-09-21T19:49:13.799Z,96400.41
2022-09-21T19:54:37.700Z,96413.94
2022-09-21T19:59:43.120Z,96400.13
2022-09-21T20:05:07.132Z,96410.78
2022-09-21T20:10:25.315Z,96397.28
2022-09-21T20:15:38.884Z,96414.78
2022-09-21T20:20:42.324Z,96403.78
2022-09-21T20:25:53.225Z,96396.88
2022-09-21T20:30:55.399Z,96375.56
2022-09-21T20:35:58.047Z,96380.38
2022-09-21T20:41:00.109Z,96369.47
2022-09-21T20:46:03.147Z,96378.41
2022-09-21T20:51:06.379Z,96392.25
2022-09-21T20:56:08.815Z,96386.47
2022-09-21T21:01:11.162Z,96394.56
2022-09-21T21:06:16.948Z,96384.94
2022-09-21T21:11:20.616Z,96404.44
2022-09-21T21:16:23.405Z,96414.78
2022-09-21T21:21:26.059Z,96402.13
2022-09-21T21:26:50.356Z,96416.94
2022-09-21T21:31:50.936Z,96392.59
2022-09-21T21:36:53.889Z,96413.75
2022-09-21T21:41:56.217Z,96400.66
2022-09-21T21:47:10.248Z,96393.72
2022-09-21T21:52:21.496Z,96394.50
2022-09-21T21:57:23.733Z,96392.59
2022-09-21T22:02:25.925Z,96381.00
2022-09-21T22:07:28.038Z,96383.94
2022-09-21T22:12:31.713Z,96411.06
2022-09-21T22:17:33.980Z,96391.59
2022-09-21T22:22:36.218Z,96389.56
2022-09-21T22:27:38.442Z,96396.19
2022-09-21T22:32:40.480Z,96398.88
2022-09-21T22:37:42.685Z,96410.38
2022-09-21T22:42:47.472Z,96390.59
2022-09-21T22:47:52.665Z,96390.25
2022-09-21T22:52:54.880Z,96382.91
2022-09-21T22:57:56.971Z,96381.03
2022-09-21T23:02:59.058Z,96386.53
2022-09-21T23:08:01.473Z,96394.41
2022-09-21T23:13:03.734Z,96378.69
2022-09-21T23:18:05.800Z,96381.78
2022-09-21T23:23:07.841Z,96376.31
2022-09-21T23:28:10.065Z,96386.53
2022-09-21T23:33:12.958Z,96382.09
2022-09-21T23:38:15.186Z,96362.75
2022-09-21T23:43:17.373Z,96365.13
2022-09-21T23:48:19.574Z,96379.84
2022-09-21T23:53:22.520Z,96375.78
2022-09-21T23:58:26.368Z,96353.97
